createdAt,value
2022-12-15T05:08:55.757Z,1.26
2022-12-15T05:12:16.475Z,1.22
2022-12-15T05:15:36.962Z,1.26
2022-12-15T05:18:57.859Z,0.98
2022-12-15T05:22:18.732Z,1.07
2022-12-15T05:25:39.929Z,1.07
2022-12-15T05:29:00.637Z,1.02
2022-12-15T05:32:03.121Z,0.81
2022-12-15T05:35:05.724Z,0.92
2022-12-15T05:38:08.097Z,1.23
2022-12-15T05:41:10.207Z,1.34
2022-12-15T05:44:12.897Z,1.08
2022-12-15T05:47:14.935Z,1.08
2022-12-15T05:50:17.274Z,1.12
2022-12-15T05:53:19.309Z,1.29
2022-12-15T05:56:21.806Z,1.48
2022-12-15T05:59:23.945Z,1.63
2022-12-15T06:02:28.770Z,1.88
2022-12-15T06:05:31.113Z,1.67
2022-12-15T06:08:35.199Z,1.60
2022-12-15T06:11:37.742Z,1.65
2022-12-15T06:14:39.862Z,1.90
2022-12-15T06:17:42.186Z,1.89
2022-12-15T06:20:44.232Z,1.91
2022-12-15T06:23:47.996Z,1.80
2022-12-15T06:26:50.291Z,1.72
2022-12-15T06:29:53.019Z,1.58
2022-12-15T06:32:55.061Z,1.59
2022-12-15T06:35:57.841Z,1.59
2022-12-15T06:39:05.108Z,1.61
2022-12-15T06:42:07.429Z,1.80
2022-12-15T06:45:10.012Z,1.90
2022-12-15T06:48:12.354Z,1.99
2022-12-15T06:51:17.405Z,2.01
2022-12-15T06:54:20.003Z,2.32
2022-12-15T06:57:22.036Z,2.16
2022-12-15T07:00:24.360Z,2.08
2022-12-15T07:03:26.607Z,2.14
2022-12-15T07:06:36.054Z,2.05
2022-12-15T07:09:38.191Z,2.12
2022-12-15T07:12:40.594Z,2.02
2022-12-15T07:15:44.246Z,2.03
2022-12-15T07:18:47.162Z,2.19
2022-12-15T07:21:49.211Z,2.17
2022-12-15T07:24:51.497Z,2.20
2022-12-15T07:27:56.152Z,2.21
2022-12-15T07:31:06.241Z,2.18
2022-12-15T07:34:08.311Z,2.27
2022-12-15T07:37:10.767Z,2.32
2022-12-15T07:40:12.876Z,2.24
2022-12-15T07:43:15.869Z,2.18
2022-12-15T07:46:18.299Z,2.10
2022-12-15T07:49:21.277Z,1.93
2022-12-15T07:52:23.871Z,2.06
2022-12-15T07:55:57.229Z,2.07
2022-12-15T07:58:51.695Z,2.13
2022-12-15T08:01:54.136Z,2.18
2022-12-15T08:04:56.643Z,1.99
2022-12-15T08:08:15.581Z,2.21
2022-12-15T08:11:26.091Z,2.49
2022-12-15T08:14:32.837Z,2.81
2022-12-15T08:17:46.926Z,2.63
2022-12-15T08:20:50.341Z,2.84
2022-12-15T08:24:26.471Z,2.76
2022-12-15T08:27:29.166Z,2.76
2022-12-15T08:30:33.156Z,2.61
2022-12-15T08:33:36.873Z,2.66
2022-12-15T08:36:39.575Z,2.87
2022-12-15T08:39:42.508Z,2.85
2022-12-15T08:42:45.476Z,2.76
2022-12-15T08:45:51.316Z,2.84
2022-12-15T08:49:04.927Z,3.10
2022-12-15T08:52:12.841Z,3.10
2022-12-15T08:55:22.462Z,2.90
2022-12-15T08:58:26.401Z,2.80
2022-12-15T09:01:33.648Z,2.73
2022-12-15T09:04:36.565Z,2.89
2022-12-15T09:07:45.257Z,3.03
2022-12-15T09:10:52.379Z,2.72
2022-12-15T09:13:57.828Z,3.19
2022-12-15T09:17:01.767Z,3.47
2022-12-15T09:20:17.987Z,3.58
2022-12-15T09:23:27.581Z,3.50
2022-12-15T09:26:45.953Z,3.36
2022-12-15T09:30:03.313Z,3.15
2022-12-15T09:33:06.298Z,3.35
2022-12-15T09:36:10.282Z,3.39
2022-12-15T09:39:12.797Z,3.37
2022-12-15T09:42:25.345Z,3.59
2022-12-15T09:45:43.446Z,3.79
2022-12-15T09:48:46.789Z,3.86
2022-12-15T09:52:17.001Z,3.71
2022-12-15T09:55:30.646Z,3.69
2022-12-15T09:58:51.801Z,3.74
2022-12-15T10:02:40.379Z,3.56
2022-12-15T10:06:18.308Z,3.46
2022-12-15T10:09:27.456Z,3.17
2022-12-15T10:12:37.051Z,3.27
2022-12-15T10:15:50.439Z,3.16
2022-12-15T10:19:08.910Z,3.30
2022-12-15T10:22:14.375Z,3.27
2022-12-15T10:28:59.230Z,3.09
2022-12-15T10:32:10.561Z,3.16
2022-12-15T10:35:21.638Z,3.60
2022-12-15T10:38:38.603Z,3.70
2022-12-15T10:41:41.253Z,3.62
2022-12-15T10:44:50.418Z,3.49
2022-12-15T10:48:06.870Z,3.53
2022-12-15T10:51:32.997Z,3.75
2022-12-15T10:54:43.399Z,4.10
2022-12-15T10:58:01.428Z,4.15
2022-12-15T11:01:14.910Z,4.06
2022-12-15T11:04:27.680Z,3.91
2022-12-15T11:07:35.070Z,3.81
2022-12-15T11:11:11.735Z,3.63
2022-12-15T11:14:17.741Z,3.59
2022-12-15T11:17:22.884Z,3.57
2022-12-15T11:20:33.372Z,3.47
2022-12-15T11:23:48.869Z,3.62
2022-12-15T11:26:58.622Z,3.54
2022-12-15T11:30:22.132Z,3.44
2022-12-15T11:33:24.301Z,3.58
2022-12-15T11:37:02.156Z,3.68
2022-12-15T11:40:35.769Z,3.76
2022-12-15T11:44:00.974Z,3.73
2022-12-15T11:47:14.840Z,3.85
2022-12-15T11:50:27.365Z,3.89
2022-12-15T11:54:14.737Z,3.94
2022-12-15T11:57:44.402Z,3.70
2022-12-15T12:01:26.457Z,3.84
2022-12-15T12:04:36.179Z,3.66
2022-12-15T12:07:47.920Z,3.66
2022-12-15T12:11:03.755Z,3.58
2022-12-15T12:15:18.263Z,3.75
2022-12-15T12:18:23.040Z,3.75
2022-12-15T12:21:31.745Z,3.68
2022-12-15T12:24:41.359Z,3.67
2022-12-15T12:28:24.742Z,3.54
2022-12-15T12:31:42.376Z,3.58
2022-12-15T12:35:29.778Z,4.06
2022-12-15T12:38:29.874Z,3.91
2022-12-15T12:41:47.061Z,3.84
2022-12-15T12:44:49.803Z,3.70
2022-12-15T12:47:56.109Z,3.64
2022-12-15T12:51:17.753Z,3.61
2022-12-15T12:54:37.812Z,3.61
2022-12-15T12:57:41.865Z,4.10
2022-12-15T13:01:15.144Z,4.16
2022-12-15T13:04:30.922Z,3.95
2022-12-15T13:07:40.961Z,3.94
2022-12-15T13:10:47.906Z,3.77
2022-12-15T13:13:53.440Z,3.71
2022-12-15T13:17:27.706Z,3.70
2022-12-15T13:20:33.050Z,3.70
2022-12-15T13:23:40.297Z,3.63
2022-12-15T13:26:52.433Z,3.78
2022-12-15T13:30:01.087Z,3.79
2022-12-15T13:33:19.543Z,4.00
2022-12-15T13:36:37.854Z,3.95
2022-12-15T13:39:58.384Z,3.69
2022-12-15T13:43:04.048Z,3.55
2022-12-15T13:46:20.490Z,3.48
2022-12-15T13:49:31.304Z,3.40
2022-12-15T13:53:08.504Z,3.55
2022-12-15T13:56:06.612Z,3.68
2022-12-15T13:59:33.396Z,3.81
2022-12-15T14:02:36.996Z,3.63
2022-12-15T14:05:42.835Z,3.49
2022-12-15T14:08:44.956Z,3.67
2022-12-15T14:11:54.390Z,3.66
2022-12-15T14:14:56.663Z,3.49
2022-12-15T14:18:01.666Z,3.50
2022-12-15T14:21:20.031Z,3.49
2022-12-15T14:24:45.009Z,3.54
2022-12-15T14:27:50.755Z,3.72
2022-12-15T14:30:53.548Z,3.86
2022-12-15T14:34:18.535Z,3.77
2022-12-15T14:37:21.181Z,3.93
2022-12-15T14:40:28.893Z,4.07
2022-12-15T14:43:38.680Z,3.98
2022-12-15T14:46:45.278Z,4.02
2022-12-15T14:49:48.684Z,3.85
2022-12-15T14:53:11.476Z,3.73
2022-12-15T14:56:25.715Z,3.64
2022-12-15T14:59:34.935Z,3.73
2022-12-15T15:02:37.399Z,3.92
2022-12-15T15:03:04.400Z,3.32
2022-12-15T15:05:41.141Z,3.56
2022-12-15T15:08:48.176Z,3.50
2022-12-15T15:11:54.720Z,3.50
2022-12-15T15:15:05.012Z,3.40
2022-12-15T15:18:07.044Z,3.33
2022-12-15T15:21:17.155Z,3.55
2022-12-15T15:24:23.748Z,3.77
2022-12-15T15:27:30.605Z,3.75
2022-12-15T15:30:42.057Z,3.87
2022-12-15T15:33:44.484Z,3.86
2022-12-15T15:36:47.288Z,3.73
2022-12-15T15:39:54.910Z,3.83
2022-12-15T15:42:56.988Z,3.68
2022-12-15T15:46:08.657Z,3.82
2022-12-15T15:49:16.936Z,3.66
2022-12-15T15:52:19.257Z,3.77
2022-12-15T15:55:27.471Z,3.77
2022-12-15T15:58:30.215Z,3.81
2022-12-15T16:01:32.713Z,3.78
2022-12-15T16:04:37.161Z,3.83
2022-12-15T16:07:39.836Z,3.71
2022-12-15T16:10:45.501Z,3.73
2022-12-15T16:13:47.585Z,3.71
2022-12-15T16:16:49.960Z,3.70
2022-12-15T16:23:22.819Z,3.73
2022-12-15T16:26:29.915Z,3.62
2022-12-15T16:29:31.962Z,3.63
2022-12-15T16:32:34.248Z,3.74
2022-12-15T16:35:36.926Z,3.78
2022-12-15T16:38:39.984Z,3.75
2022-12-15T16:41:42.096Z,3.84
2022-12-15T16:44:44.496Z,3.88
2022-12-15T16:47:46.555Z,3.79
